Aviation Digital Data Service (ADDS)

Output produced by TAFs form (1132 UTC 19 January 2018)
found at http://www.aviationweather.gov/adds/tafs/
 
RJOA 191100Z VRB02KT 8000 FEW020 BKN030 07/02 Q1018
TAF RJOA 191105Z 1912/2018 32004KT 8000 FEW015 BKN035